createdAt,value
2022-10-26T00:00:07.218Z,18.17
2022-10-26T00:02:41.092Z,18.93
2022-10-26T00:05:11.272Z,21.83
2022-10-26T00:10:11.088Z,22.37
2022-10-26T00:12:42.191Z,19.17
2022-10-26T00:15:12.663Z,18.33
2022-10-26T00:17:42.409Z,21.67
2022-10-26T00:20:12.425Z,20.00
2022-10-26T00:22:42.439Z,15.33
2022-10-26T00:25:12.164Z,16.93
2022-10-26T00:27:43.518Z,15.73
2022-10-26T00:30:16.292Z,21.33
2022-10-26T00:32:46.189Z,17.87
2022-10-26T00:35:22.951Z,18.43
2022-10-26T00:37:59.977Z,17.97
2022-10-26T00:40:31.049Z,22.80
2022-10-26T00:43:03.234Z,19.83
2022-10-26T00:45:33.359Z,18.73
2022-10-26T00:48:07.818Z,19.00
2022-10-26T00:50:43.214Z,18.50
2022-10-26T00:53:14.246Z,19.97
2022-10-26T00:55:49.084Z,15.37
2022-10-26T00:58:21.848Z,16.20
2022-10-26T01:00:51.710Z,16.23
2022-10-26T01:03:22.450Z,20.67
2022-10-26T01:05:52.543Z,19.40
2022-10-26T01:08:24.775Z,19.00
2022-10-26T01:10:54.690Z,16.50
2022-10-26T01:13:26.930Z,18.33
2022-10-26T01:16:05.546Z,15.97
2022-10-26T01:18:44.826Z,18.27
2022-10-26T01:21:42.781Z,15.17
2022-10-26T01:24:25.445Z,15.60
2022-10-26T01:27:15.148Z,14.23
2022-10-26T01:30:18.530Z,16.33
2022-10-26T01:32:58.251Z,24.57
2022-10-26T01:35:32.953Z,20.07
2022-10-26T01:38:06.946Z,21.57
2022-10-26T01:40:41.517Z,16.50
2022-10-26T01:43:14.439Z,15.43
2022-10-26T01:45:48.845Z,14.03
2022-10-26T01:48:20.733Z,16.83
2022-10-26T01:50:54.609Z,17.13
2022-10-26T01:53:23.791Z,12.77
2022-10-26T01:55:54.081Z,12.43
2022-10-26T01:58:46.004Z,16.60
2022-10-26T02:01:42.846Z,13.27
2022-10-26T02:04:26.485Z,18.20
2022-10-26T02:07:03.966Z,12.90
2022-10-26T02:09:44.137Z,12.20
2022-10-26T02:12:21.841Z,14.13
2022-10-26T02:14:52.932Z,13.77
2022-10-26T02:17:29.836Z,16.17
2022-10-26T02:20:03.642Z,14.20
2022-10-26T02:22:39.189Z,18.80
2022-10-26T02:25:12.487Z,16.87
2022-10-26T02:27:46.018Z,18.27
2022-10-26T02:30:16.608Z,14.67
2022-10-26T02:32:50.564Z,15.33
2022-10-26T02:35:24.804Z,17.60
2022-10-26T02:37:56.596Z,12.13
2022-10-26T02:40:28.937Z,12.27
2022-10-26T02:43:03.260Z,13.83
2022-10-26T02:45:36.880Z,15.63
2022-10-26T02:48:10.172Z,16.57
2022-10-26T02:50:49.525Z,19.27
2022-10-26T02:53:34.012Z,18.00
2022-10-26T02:56:10.822Z,14.87
2022-10-26T02:58:47.584Z,16.23
2022-10-26T03:01:17.381Z,17.93
2022-10-26T03:03:50.648Z,12.90
2022-10-26T03:06:24.552Z,14.53
2022-10-26T03:08:58.963Z,14.27
2022-10-26T03:11:28.713Z,14.00
2022-10-26T03:13:59.345Z,15.00
2022-10-26T03:16:29.009Z,17.50
2022-10-26T03:19:00.026Z,19.10
2022-10-26T03:21:43.095Z,19.77
2022-10-26T03:24:12.600Z,17.50
2022-10-26T03:26:41.836Z,20.37
2022-10-26T03:29:11.203Z,17.83
2022-10-26T03:31:40.483Z,17.20
2022-10-26T03:34:11.239Z,27.53
2022-10-26T03:36:40.915Z,14.17
2022-10-26T03:39:10.083Z,20.33
2022-10-26T03:41:42.732Z,16.67
2022-10-26T03:44:12.604Z,19.23
2022-10-26T03:46:41.786Z,15.80
2022-10-26T03:49:12.604Z,21.83
2022-10-26T03:51:42.282Z,26.60
2022-10-26T03:54:12.123Z,29.37
2022-10-26T03:56:41.766Z,29.43
2022-10-26T03:59:10.986Z,22.73
2022-10-26T04:01:40.884Z,38.00
2022-10-26T04:04:12.477Z,31.93
2022-10-26T04:06:41.622Z,27.37
2022-10-26T04:09:11.242Z,24.73
2022-10-26T04:11:40.303Z,24.10
2022-10-26T04:14:09.942Z,30.90
2022-10-26T04:16:39.289Z,27.50
2022-10-26T04:19:08.584Z,34.50
2022-10-26T04:21:39.755Z,31.00
2022-10-26T04:24:09.646Z,27.87
2022-10-26T04:26:39.190Z,21.47
2022-10-26T04:29:09.630Z,24.07
2022-10-26T04:31:39.161Z,23.87
2022-10-26T04:34:08.874Z,24.07
2022-10-26T04:36:40.111Z,24.03
2022-10-26T04:39:12.106Z,20.17
2022-10-26T04:41:43.942Z,23.47
2022-10-26T04:44:15.488Z,20.33
2022-10-26T04:46:47.495Z,20.93
2022-10-26T04:49:18.431Z,34.63
2022-10-26T04:51:49.411Z,41.10
2022-10-26T04:54:21.443Z,33.93
2022-10-26T04:56:51.226Z,36.13
2022-10-26T04:59:20.633Z,43.03
2022-10-26T05:01:52.314Z,45.27
2022-10-26T05:04:22.067Z,32.00
2022-10-26T05:06:55.066Z,26.23
2022-10-26T05:09:35.022Z,49.60
2022-10-26T05:12:07.941Z,31.57
2022-10-26T05:14:37.463Z,22.97
2022-10-26T05:17:07.451Z,31.10
2022-10-26T05:19:36.810Z,31.30
2022-10-26T05:22:07.921Z,31.07
2022-10-26T05:24:39.124Z,23.97
2022-10-26T05:27:10.567Z,19.17
2022-10-26T05:29:41.707Z,20.60
2022-10-26T05:32:11.257Z,27.93
2022-10-26T05:34:43.275Z,24.17
2022-10-26T05:37:14.373Z,31.30
2022-10-26T05:39:47.782Z,25.37
2022-10-26T05:42:19.274Z,25.80
2022-10-26T05:44:55.977Z,31.37
2022-10-26T05:47:27.934Z,42.50
2022-10-26T05:49:59.772Z,38.63
2022-10-26T05:52:34.441Z,21.73
2022-10-26T05:57:49.500Z,15.83
2022-10-26T06:00:21.699Z,14.80
2022-10-26T06:03:12.481Z,29.70
2022-10-26T06:05:52.600Z,23.77
2022-10-26T06:08:30.441Z,18.40
2022-10-26T06:11:01.749Z,23.63
2022-10-26T06:13:35.881Z,19.30
2022-10-26T06:16:31.647Z,21.30
2022-10-26T06:19:20.038Z,16.07
2022-10-26T06:22:03.912Z,20.83
2022-10-26T06:24:42.468Z,20.30
2022-10-26T06:27:21.865Z,29.97
2022-10-26T06:29:59.567Z,23.73
2022-10-26T06:32:29.208Z,21.13
2022-10-26T06:35:07.584Z,18.90
2022-10-26T06:37:39.565Z,24.33
2022-10-26T06:40:13.052Z,32.53
2022-10-26T06:42:43.493Z,39.67
2022-10-26T06:45:15.783Z,40.10
2022-10-26T06:47:49.728Z,35.30
2022-10-26T06:50:49.567Z,28.07
2022-10-26T06:53:26.251Z,24.10
2022-10-26T06:55:59.580Z,26.10
2022-10-26T06:58:35.672Z,31.00
2022-10-26T07:01:06.798Z,23.70
2022-10-26T07:03:36.395Z,23.13
2022-10-26T07:06:12.098Z,31.40
2022-10-26T07:08:42.173Z,30.97
2022-10-26T07:16:33.295Z,33.70
2022-10-26T07:19:06.883Z,37.57
2022-10-26T07:22:05.110Z,40.73
2022-10-26T07:24:34.619Z,39.83
2022-10-26T07:27:06.914Z,37.23
2022-10-26T07:29:37.020Z,42.80
2022-10-26T07:32:07.221Z,45.00
2022-10-26T07:34:38.618Z,42.87
2022-10-26T07:37:08.166Z,41.87
2022-10-26T07:39:39.858Z,49.10
2022-10-26T07:42:09.971Z,50.07
2022-10-26T07:44:39.249Z,53.37
2022-10-26T07:47:08.401Z,51.70
2022-10-26T07:49:41.934Z,54.90
2022-10-26T07:52:13.142Z,55.33
2022-10-26T07:54:48.129Z,56.40
2022-10-26T07:57:24.682Z,55.83
2022-10-26T07:59:54.589Z,58.83
2022-10-26T08:02:24.354Z,56.83
2022-10-26T08:04:55.425Z,56.60
2022-10-26T08:07:30.076Z,52.03
2022-10-26T08:10:01.052Z,39.40
2022-10-26T08:12:31.605Z,32.13
2022-10-26T08:15:08.139Z,20.77
2022-10-26T08:17:37.652Z,17.95
2022-10-26T08:20:09.632Z,17.92
2022-10-26T08:22:40.832Z,10.75
2022-10-26T08:25:11.217Z,12.40
2022-10-26T08:27:40.372Z,13.40
2022-10-26T08:30:10.409Z,13.82
2022-10-26T08:32:39.833Z,12.73
2022-10-26T08:35:14.186Z,11.52
2022-10-26T08:37:44.892Z,11.00
2022-10-26T08:40:19.156Z,14.52
2022-10-26T08:42:52.448Z,9.10
2022-10-26T08:45:35.825Z,8.48
2022-10-26T08:48:09.796Z,10.15
2022-10-26T08:50:44.973Z,10.60
2022-10-26T08:53:24.165Z,7.75
2022-10-26T08:56:00.244Z,11.85
2022-10-26T08:58:33.921Z,10.25
2022-10-26T09:01:03.878Z,9.13
2022-10-26T09:03:33.908Z,6.78
2022-10-26T09:06:18.317Z,11.93
2022-10-26T09:09:01.852Z,9.57
2022-10-26T09:11:45.099Z,11.25
2022-10-26T09:14:19.737Z,8.10
2022-10-26T09:16:59.646Z,12.52
2022-10-26T09:19:56.575Z,6.18
2022-10-26T09:22:34.718Z,6.95
2022-10-26T09:25:14.083Z,7.22
2022-10-26T09:27:48.831Z,8.52
2022-10-26T09:30:20.535Z,7.30
2022-10-26T09:32:53.788Z,7.88
2022-10-26T09:35:25.775Z,11.43
2022-10-26T09:38:00.013Z,9.18
2022-10-26T09:40:37.979Z,9.55
2022-10-26T09:43:13.965Z,10.38
2022-10-26T09:45:47.747Z,10.85
2022-10-26T09:48:22.416Z,11.80
2022-10-26T09:50:54.498Z,7.20
2022-10-26T09:53:25.242Z,10.15
2022-10-26T09:56:05.807Z,8.43
2022-10-26T09:58:38.930Z,9.20
2022-10-26T10:01:07.733Z,8.10
2022-10-26T10:03:36.806Z,7.80
2022-10-26T10:06:20.638Z,5.40
2022-10-26T10:09:11.145Z,9.00
2022-10-26T10:11:41.989Z,9.00
2022-10-26T10:14:17.992Z,5.95
2022-10-26T10:16:56.881Z,4.38
2022-10-26T10:19:27.758Z,5.72
2022-10-26T10:22:00.885Z,5.00
2022-10-26T10:24:32.997Z,7.88
2022-10-26T10:27:04.896Z,4.38
2022-10-26T10:29:35.273Z,6.82
2022-10-26T10:32:05.933Z,3.85
2022-10-26T10:34:36.998Z,4.28
2022-10-26T10:37:06.834Z,5.70
2022-10-26T10:39:41.206Z,3.72
2022-10-26T10:42:19.759Z,4.30
2022-10-26T10:44:52.412Z,7.20
2022-10-26T10:47:25.404Z,3.90
2022-10-26T10:50:00.756Z,4.15
2022-10-26T10:52:31.952Z,3.35
2022-10-26T10:55:22.281Z,3.17
2022-10-26T10:58:08.412Z,5.70
2022-10-26T11:00:39.217Z,3.72
2022-10-26T11:03:25.029Z,3.45
2022-10-26T11:06:09.684Z,5.82
2022-10-26T11:08:44.522Z,2.53
2022-10-26T11:11:18.501Z,2.45
2022-10-26T11:13:53.799Z,3.53
2022-10-26T11:16:27.800Z,4.10
2022-10-26T11:19:00.548Z,2.33
2022-10-26T11:21:32.192Z,3.25
2022-10-26T11:24:13.759Z,3.90
2022-10-26T11:26:49.612Z,4.38
2022-10-26T11:29:26.375Z,2.63
2022-10-26T11:32:01.931Z,4.40
2022-10-26T11:34:39.292Z,3.28
2022-10-26T11:37:14.574Z,5.45
2022-10-26T11:39:47.463Z,6.43
2022-10-26T11:42:30.094Z,6.60
2022-10-26T11:45:04.711Z,5.55
2022-10-26T11:47:42.647Z,5.63
2022-10-26T11:50:18.734Z,3.38
2022-10-26T11:52:53.967Z,4.10
2022-10-26T11:55:24.140Z,5.38
2022-10-26T11:57:56.463Z,7.05
2022-10-26T12:00:26.212Z,2.90
2022-10-26T12:02:59.120Z,3.63
2022-10-26T12:05:36.066Z,3.15
2022-10-26T12:08:11.576Z,3.25
2022-10-26T12:10:44.945Z,4.75
2022-10-26T12:13:27.502Z,5.80
2022-10-26T12:16:04.391Z,5.35
2022-10-26T12:18:57.263Z,3.67
2022-10-26T12:21:30.196Z,5.50
2022-10-26T12:24:01.497Z,4.65
2022-10-26T12:26:42.374Z,4.47
2022-10-26T12:29:37.306Z,6.45
2022-10-26T12:32:51.791Z,2.88
2022-10-26T12:35:42.085Z,3.92
2022-10-26T12:38:44.845Z,4.30
2022-10-26T12:41:22.127Z,4.60
2022-10-26T12:43:51.603Z,3.33
2022-10-26T12:46:46.558Z,4.10
2022-10-26T12:50:08.825Z,5.40
2022-10-26T12:52:57.449Z,3.80
2022-10-26T12:56:03.453Z,5.53
2022-10-26T12:59:05.749Z,8.50
2022-10-26T13:02:00.553Z,6.20
2022-10-26T13:05:09.254Z,4.28
2022-10-26T13:07:39.984Z,4.60
2022-10-26T13:10:22.060Z,3.22
2022-10-26T13:12:55.013Z,3.90
2022-10-26T13:15:27.465Z,3.10
2022-10-26T13:18:18.632Z,4.50
2022-10-26T13:21:00.763Z,4.72
2022-10-26T13:23:33.155Z,6.43
2022-10-26T13:26:09.684Z,3.50
2022-10-26T13:28:49.506Z,3.00
2022-10-26T13:31:58.575Z,4.85
2022-10-26T13:34:32.999Z,3.75
2022-10-26T13:37:08.608Z,4.97
2022-10-26T13:39:41.047Z,3.50
2022-10-26T13:42:17.543Z,2.70
2022-10-26T13:44:53.389Z,2.30
2022-10-26T13:47:30.075Z,3.28
2022-10-26T13:50:06.465Z,4.43
2022-10-26T13:52:40.016Z,4.65
2022-10-26T13:55:16.851Z,2.60
2022-10-26T13:57:48.645Z,3.92
2022-10-26T14:00:21.712Z,3.08
2022-10-26T14:02:51.304Z,3.53
2022-10-26T14:05:24.691Z,8.55
2022-10-26T14:07:57.598Z,10.02
2022-10-26T14:10:30.309Z,8.63
2022-10-26T14:13:00.538Z,9.00
2022-10-26T14:15:32.276Z,5.68
2022-10-26T14:18:04.539Z,4.47
2022-10-26T14:20:34.956Z,3.55
2022-10-26T14:23:07.788Z,4.80
2022-10-26T14:25:47.986Z,3.33
2022-10-26T14:28:26.371Z,3.63
2022-10-26T14:30:57.594Z,3.63
2022-10-26T14:33:30.490Z,3.42
2022-10-26T14:36:01.051Z,3.83
2022-10-26T14:38:38.649Z,6.03
2022-10-26T14:41:08.082Z,6.35
2022-10-26T14:43:37.074Z,9.82
2022-10-26T14:46:06.383Z,2.55
2022-10-26T14:48:53.774Z,13.65
2022-10-26T14:51:28.747Z,8.80
2022-10-26T14:54:01.356Z,14.52
2022-10-26T14:56:40.133Z,5.43
2022-10-26T14:59:17.301Z,7.72
2022-10-26T15:01:52.108Z,10.18
2022-10-26T15:04:33.963Z,11.57
2022-10-26T15:07:21.770Z,7.30
2022-10-26T15:09:52.469Z,8.80
2022-10-26T15:12:40.810Z,8.35
2022-10-26T15:17:54.716Z,6.30
2022-10-26T15:20:27.737Z,8.98
2022-10-26T15:23:00.355Z,5.90
2022-10-26T15:25:35.119Z,5.82
2022-10-26T15:28:13.841Z,5.05
2022-10-26T15:31:15.609Z,6.00
2022-10-26T15:34:18.050Z,5.47
2022-10-26T15:36:47.363Z,6.82
2022-10-26T15:39:36.118Z,7.43
2022-10-26T15:42:12.660Z,4.07
2022-10-26T15:44:46.773Z,4.07
2022-10-26T15:47:21.351Z,11.50
2022-10-26T15:49:50.981Z,11.40
2022-10-26T15:52:49.395Z,13.53
2022-10-26T15:55:20.292Z,9.23
2022-10-26T15:58:00.391Z,17.43
2022-10-26T16:00:29.582Z,16.73
2022-10-26T16:02:58.764Z,10.97
2022-10-26T16:08:00.609Z,13.27
2022-10-26T16:10:31.096Z,7.70
2022-10-26T16:13:02.749Z,6.77
2022-10-26T16:15:35.092Z,9.60
2022-10-26T16:18:04.620Z,10.37
2022-10-26T16:20:33.800Z,14.60
2022-10-26T16:23:07.295Z,8.40
2022-10-26T16:25:44.632Z,13.47
2022-10-26T16:28:16.323Z,7.33
2022-10-26T16:30:46.057Z,9.03
2022-10-26T16:33:15.379Z,11.57
2022-10-26T16:35:44.635Z,8.30
2022-10-26T16:38:13.888Z,6.93
2022-10-26T16:40:45.420Z,13.03
2022-10-26T16:43:14.677Z,9.03
2022-10-26T16:45:44.148Z,13.43
2022-10-26T16:48:15.955Z,18.20
2022-10-26T16:50:45.835Z,12.37
2022-10-26T16:53:15.495Z,14.70
2022-10-26T16:55:46.865Z,5.90
2022-10-26T16:58:16.561Z,6.43
2022-10-26T17:00:46.039Z,10.93
2022-10-26T17:03:18.334Z,7.67
2022-10-26T17:05:55.897Z,13.07
2022-10-26T17:08:30.195Z,7.70
2022-10-26T17:11:08.904Z,9.17
2022-10-26T17:13:38.822Z,8.57
2022-10-26T17:16:14.903Z,9.40
2022-10-26T17:18:48.675Z,11.30
2022-10-26T17:21:30.951Z,12.63
2022-10-26T17:24:04.050Z,14.80
2022-10-26T17:26:34.623Z,15.80
2022-10-26T17:29:03.920Z,13.87
2022-10-26T17:31:33.271Z,21.13
2022-10-26T17:34:02.646Z,11.37
2022-10-26T17:36:32.527Z,20.77
2022-10-26T17:39:02.601Z,13.43
2022-10-26T17:41:32.668Z,9.50
2022-10-26T17:44:03.431Z,14.67
2022-10-26T17:46:34.575Z,19.93
2022-10-26T17:49:04.224Z,19.73
2022-10-26T17:51:33.383Z,18.53
2022-10-26T17:54:07.904Z,22.07
2022-10-26T17:56:37.365Z,30.80
2022-10-26T17:59:14.126Z,29.60
2022-10-26T18:01:44.698Z,27.63
2022-10-26T18:04:14.044Z,28.13
2022-10-26T18:06:48.494Z,37.23
2022-10-26T18:09:17.787Z,35.70
2022-10-26T18:11:50.714Z,42.80
2022-10-26T18:14:24.253Z,37.27
2022-10-26T18:16:53.777Z,32.40
2022-10-26T18:19:24.670Z,32.43
2022-10-26T18:21:55.079Z,42.47
2022-10-26T18:24:24.850Z,30.47
2022-10-26T18:26:54.085Z,35.03
2022-10-26T18:29:25.310Z,34.37
2022-10-26T18:31:55.566Z,59.13
2022-10-26T18:34:25.701Z,39.50
2022-10-26T18:36:56.574Z,39.10
2022-10-26T18:39:26.098Z,50.10
2022-10-26T18:41:56.316Z,34.90
2022-10-26T18:44:28.017Z,35.77
2022-10-26T18:46:58.574Z,34.53
2022-10-26T18:49:27.885Z,36.70
2022-10-26T18:51:57.078Z,38.20
2022-10-26T18:54:28.310Z,49.37
2022-10-26T18:57:01.626Z,47.20
2022-10-26T18:59:32.497Z,42.53
2022-10-26T19:02:01.691Z,46.97
2022-10-26T19:04:30.746Z,46.97
2022-10-26T19:06:59.844Z,49.73
2022-10-26T19:09:29.396Z,48.37
2022-10-26T19:12:01.414Z,41.03
2022-10-26T19:14:35.216Z,48.23
2022-10-26T19:17:04.414Z,45.50
2022-10-26T19:19:33.233Z,58.70
2022-10-26T19:22:03.249Z,59.83
2022-10-26T19:24:33.013Z,61.60
2022-10-26T19:27:02.832Z,65.90
2022-10-26T19:29:31.945Z,65.27
2022-10-26T19:32:03.568Z,63.93
2022-10-26T19:34:32.924Z,66.53
2022-10-26T19:37:02.021Z,64.73
2022-10-26T19:39:31.392Z,58.97
2022-10-26T19:42:01.001Z,70.17
2022-10-26T19:44:30.556Z,60.40
2022-10-26T19:46:59.375Z,71.07
2022-10-26T19:49:31.049Z,63.20
2022-10-26T19:52:01.689Z,60.17
2022-10-26T19:54:30.900Z,64.73
2022-10-26T19:56:59.940Z,53.47
2022-10-26T19:59:29.214Z,57.97
2022-10-26T20:02:00.716Z,43.50
2022-10-26T20:04:31.777Z,53.17
2022-10-26T20:07:01.223Z,48.37
2022-10-26T20:09:31.505Z,49.60
2022-10-26T20:12:02.612Z,46.90
2022-10-26T20:14:32.282Z,46.40
2022-10-26T20:17:01.460Z,51.63
2022-10-26T20:19:32.039Z,57.20
2022-10-26T20:22:02.023Z,44.47
2022-10-26T20:24:31.467Z,51.67
2022-10-26T20:27:00.464Z,51.60
2022-10-26T20:29:29.491Z,46.17
2022-10-26T20:32:00.316Z,46.57
2022-10-26T20:34:30.256Z,43.20
2022-10-26T20:37:01.204Z,49.53
2022-10-26T20:39:30.667Z,47.77
2022-10-26T20:42:00.200Z,49.60
2022-10-26T20:44:34.795Z,42.73
2022-10-26T20:47:04.662Z,37.57
2022-10-26T20:49:35.074Z,35.67
2022-10-26T20:52:20.860Z,33.87
2022-10-26T20:55:00.836Z,34.47
2022-10-26T20:57:33.844Z,40.60
2022-10-26T21:00:09.697Z,38.13
2022-10-26T21:02:40.643Z,37.87
2022-10-26T21:05:10.269Z,40.60
2022-10-26T21:07:41.519Z,37.30
2022-10-26T21:10:13.562Z,39.80
2022-10-26T21:12:42.948Z,44.73
2022-10-26T21:15:14.254Z,45.27
2022-10-26T21:17:43.672Z,41.47
2022-10-26T21:20:15.267Z,45.93
2022-10-26T21:22:49.506Z,44.43
2022-10-26T21:25:19.942Z,38.00
2022-10-26T21:27:52.005Z,48.17
2022-10-26T21:30:21.130Z,39.70
2022-10-26T21:32:53.903Z,39.47
2022-10-26T21:35:23.606Z,41.03
2022-10-26T21:37:54.276Z,40.63
2022-10-26T21:40:24.196Z,39.20
2022-10-26T21:42:53.502Z,41.10
2022-10-26T21:45:22.622Z,38.77
2022-10-26T21:47:54.802Z,37.40
2022-10-26T21:50:24.534Z,40.33
2022-10-26T21:52:56.319Z,47.33
2022-10-26T21:55:25.511Z,35.03
2022-10-26T21:57:55.015Z,34.77
2022-10-26T22:00:26.041Z,33.60
2022-10-26T22:03:00.565Z,40.47
2022-10-26T22:05:30.525Z,31.37
2022-10-26T22:08:01.278Z,40.60
2022-10-26T22:10:32.326Z,39.33
2022-10-26T22:13:01.526Z,35.97
2022-10-26T22:15:46.285Z,37.97
2022-10-26T22:18:18.989Z,32.97
2022-10-26T22:20:57.784Z,44.27
2022-10-26T22:23:34.624Z,48.13
2022-10-26T22:26:05.480Z,52.03
2022-10-26T22:28:46.473Z,62.80
2022-10-26T22:31:20.752Z,50.53
2022-10-26T22:33:53.908Z,41.40
2022-10-26T22:36:25.949Z,40.70
2022-10-26T22:38:56.843Z,49.50
2022-10-26T22:41:26.975Z,46.83
2022-10-26T22:43:56.296Z,44.23
2022-10-26T22:46:26.441Z,55.37
2022-10-26T22:48:56.617Z,65.73
2022-10-26T22:51:28.671Z,50.60
2022-10-26T22:54:01.800Z,54.83
2022-10-26T22:56:33.260Z,53.23
2022-10-26T22:59:03.101Z,64.80
2022-10-26T23:01:37.241Z,48.63
2022-10-26T23:04:09.671Z,54.60
2022-10-26T23:06:39.421Z,53.93
2022-10-26T23:09:26.079Z,56.07
2022-10-26T23:11:55.672Z,52.27
2022-10-26T23:14:31.009Z,44.07
2022-10-26T23:16:59.779Z,40.53
2022-10-26T23:19:29.199Z,39.77
2022-10-26T23:21:58.412Z,30.83
2022-10-26T23:24:29.412Z,43.27
2022-10-26T23:26:58.739Z,41.97
2022-10-26T23:29:27.963Z,39.10
2022-10-26T23:31:57.543Z,36.57
2022-10-26T23:34:27.014Z,38.63
2022-10-26T23:36:56.819Z,37.80
2022-10-26T23:39:26.278Z,36.90
2022-10-26T23:41:57.154Z,36.20
2022-10-26T23:44:26.526Z,35.20
2022-10-26T23:46:56.190Z,37.83
2022-10-26T23:49:25.260Z,33.83
2022-10-26T23:51:54.490Z,35.93
2022-10-26T23:54:23.887Z,37.23
2022-10-26T23:56:52.965Z,33.80
2022-10-26T23:59:23.889Z,37.13
